Time;durP1;ratioP1;P1;durP2;ratioP2;P2;SDS_P1;SDS_P2;PMS_P1;PMS_P2;Temp;Humidity;BMP_temperature;BMP_pressure;BME280_temperature;BME280_humidity;BME280_pressure;Samples;Min_cycle;Max_cycle;Signal;HPM_P1;HPM_P2
2023/03/02 00:00:15;;;;;;;6.35;3.53;;;;;;;5.94;74.82;94215.75;5104455;28;20195;-77
2023/03/02 00:02:41;;;;;;;6.57;3.60;;;;;;;5.93;74.59;94218.66;5105611;28;20028;-77
2023/03/02 00:05:09;;;;;;;8.70;3.90;;;;;;;5.92;74.44;94211.78;5105651;28;20325;-78
2023/03/02 00:07:36;;;;;;;8.45;3.65;;;;;;;5.94;74.64;94220.22;5105594;28;20039;-76
2023/03/02 00:10:04;;;;;;;5.55;3.17;;;;;;;5.93;74.56;94218.66;5105569;28;20024;-76
2023/03/02 00:12:32;;;;;;;10.77;4.15;;;;;;;5.93;74.64;94214.16;5105522;28;20083;-77
2023/03/02 00:14:57;;;;;;;10.75;4.10;;;;;;;5.95;74.61;94219.22;5105446;28;20024;-76
2023/03/02 00:17:26;;;;;;;9.52;3.33;;;;;;;5.96;74.57;94212.84;5105468;28;20027;-77
2023/03/02 00:20:09;;;;;;;10.07;4.10;;;;;;;6.00;74.51;94213.88;5105238;28;20020;-75
2023/03/02 00:22:34;;;;;;;;;;;;;;;5.96;74.48;94203.06;5105740;28;20031;-76
2023/03/02 00:25:00;;;;;;;6.35;3.55;;;;;;;5.90;74.81;94195.38;5105187;28;19904;-76
2023/03/02 00:27:28;;;;;;;6.10;2.97;;;;;;;5.93;74.83;94192.22;5105298;28;20227;-76
2023/03/02 00:29:54;;;;;;;6.85;4.03;;;;;;;5.95;74.84;94190.88;5105235;28;20192;-76
2023/03/02 00:32:20;;;;;;;4.95;2.75;;;;;;;5.95;74.61;94200.69;5105335;28;20035;-76
2023/03/02 00:34:45;;;;;;;5.05;2.95;;;;;;;5.97;74.58;94193.28;5105056;28;20310;-76
2023/03/02 00:37:10;;;;;;;7.45;2.35;;;;;;;5.99;74.15;94185.84;5105208;28;20031;-76
2023/03/02 00:39:36;;;;;;;5.45;2.40;;;;;;;6.01;73.99;94178.41;5104975;28;20042;-76
2023/03/02 00:42:01;;;;;;;5.28;2.45;;;;;;;6.03;73.91;94187.66;5104900;28;20265;-76
2023/03/02 00:44:27;;;;;;;3.75;2.17;;;;;;;6.07;73.78;94177.31;5104961;28;20027;-77
2023/03/02 00:46:52;;;;;;;3.55;2.00;;;;;;;6.08;73.62;94180.75;5104733;28;20072;-77
2023/03/02 00:49:17;;;;;;;5.15;2.00;;;;;;;6.08;73.54;94170.16;5104802;28;20028;-76
2023/03/02 00:51:43;;;;;;;5.20;2.25;;;;;;;6.08;73.51;94164.88;5104864;28;20023;-76
2023/03/02 00:54:09;;;;;;;3.75;2.17;;;;;;;6.06;73.44;94165.13;5104700;28;20024;-76
2023/03/02 00:56:34;;;;;;;4.68;2.17;;;;;;;6.07;73.24;94166.72;5104670;28;20352;-76
2023/03/02 00:59:04;;;;;;;4.28;2.13;;;;;;;6.08;72.97;94168.28;5103936;28;20043;-76
2023/03/02 01:01:30;;;;;;;3.72;1.83;;;;;;;6.03;73.02;94168.34;5104599;28;20032;-76
2023/03/02 01:03:55;;;;;;;2.95;1.88;;;;;;;6.01;73.18;94159.91;5104357;28;20071;-76
2023/03/02 01:06:21;;;;;;;4.25;2.10;;;;;;;6.03;73.27;94160.41;5103891;28;20091;-76
2023/03/02 01:08:46;;;;;;;3.80;1.67;;;;;;;6.02;73.08;94150.88;5104510;28;20028;-75
2023/03/02 01:11:17;;;;;;;5.05;2.58;;;;;;;6.06;72.95;94149.25;5104431;28;20034;-76
2023/03/02 01:13:47;;;;;;;3.35;1.60;;;;;;;6.03;73.07;94144.53;5103914;28;20027;-75
2023/03/02 01:16:13;;;;;;;4.75;1.98;;;;;;;6.02;72.86;94148.22;5104259;28;20016;-76
2023/03/02 01:18:38;;;;;;;5.95;2.30;;;;;;;6.02;72.87;94137.66;5104326;28;20028;-76
2023/03/02 01:21:10;;;;;;;3.63;2.10;;;;;;;6.00;73.22;94139.78;5104197;28;20016;-76
2023/03/02 01:23:36;;;;;;;4.60;2.17;;;;;;;6.01;73.02;94146.66;5104174;28;20024;-75
2023/03/02 01:26:01;;;;;;;4.43;2.50;;;;;;;6.01;73.38;94144.03;5103909;28;20034;-77
2023/03/02 01:28:27;;;;;;;4.78;2.55;;;;;;;6.02;73.31;94158.81;5103954;28;20346;-77
2023/03/02 01:30:53;;;;;;;3.08;2.28;;;;;;;6.03;73.08;94149.84;5104143;28;20030;-77
2023/03/02 01:33:20;;;;;;;4.40;2.40;;;;;;;6.07;73.34;94150.06;5103988;28;20024;-77
2023/03/02 01:35:46;;;;;;;4.45;2.20;;;;;;;6.03;73.24;94144.53;5103889;28;20020;-76
2023/03/02 01:38:12;;;;;;;3.60;1.67;;;;;;;6.01;73.47;94136.09;5103888;28;20020;-76
2023/03/02 01:40:37;;;;;;;3.20;1.92;;;;;;;6.04;73.24;94135.53;5103777;28;20054;-77
2023/03/02 01:43:11;;;;;;;5.43;2.13;;;;;;;6.00;73.34;94139.78;5102698;28;20523;-78
2023/03/02 01:45:53;;;;;;;2.88;1.88;;;;;;;5.97;73.60;94137.72;5103513;28;20024;-77
2023/03/02 01:48:32;;;;;;;4.10;2.13;;;;;;;5.95;73.87;94131.91;5103705;28;20024;-77
2023/03/02 01:50:59;;;;;;;6.05;1.95;;;;;;;5.93;74.12;94123.41;5103674;28;20066;-77
2023/03/02 01:53:27;;;;;;;3.53;1.73;;;;;;;5.91;73.84;94136.13;5103547;28;20031;-77
2023/03/02 01:55:53;;;;;;;4.10;2.00;;;;;;;5.90;73.97;94129.25;5103607;28;20077;-77
2023/03/02 01:58:19;;;;;;;4.15;2.17;;;;;;;5.89;73.95;94125.03;5103492;28;20020;-77
2023/03/02 02:00:45;;;;;;;2.67;1.58;;;;;;;5.91;74.10;94121.03;5103338;28;20024;-76
2023/03/02 02:03:19;;;;;;;3.40;1.90;;;;;;;5.93;73.85;94126.06;5103550;28;20016;-76
2023/03/02 02:05:53;;;;;;;3.28;1.80;;;;;;;5.91;73.79;94120.25;5103435;28;20027;-76
2023/03/02 02:08:19;;;;;;;4.07;2.15;;;;;;;5.90;73.77;94118.66;5103324;28;20028;-76
2023/03/02 02:10:44;;;;;;;3.72;1.85;;;;;;;5.89;73.83;94114.47;5103350;28;20030;-76
2023/03/02 02:13:10;;;;;;;2.85;1.63;;;;;;;5.90;73.64;94121.31;5103524;28;20024;-75
2023/03/02 02:15:37;;;;;;;5.82;2.10;;;;;;;5.91;73.66;94121.03;5103162;28;20019;-76
2023/03/02 02:18:03;;;;;;;4.15;1.73;;;;;;;5.92;73.50;94122.63;5103210;28;20048;-76
2023/03/02 02:20:38;;;;;;;7.72;1.85;;;;;;;5.90;73.56;94129.25;5103135;28;20047;-76
2023/03/02 02:23:38;;;;;;;3.60;1.70;;;;;;;5.83;73.76;94121.63;5103311;28;20065;-76
2023/03/02 02:26:26;;;;;;;3.15;1.63;;;;;;;5.82;74.00;94127.97;5102780;28;20036;-76
2023/03/02 02:29:06;;;;;;;3.75;1.50;;;;;;;5.79;74.05;94129.31;5102574;28;20353;-76
2023/03/02 02:31:41;;;;;;;3.30;1.75;;;;;;;5.79;74.17;94128.53;5103083;28;20032;-76
2023/03/02 02:34:38;;;;;;;3.00;1.42;;;;;;;5.74;74.15;94131.22;5103150;28;20073;-76
2023/03/02 02:37:13;;;;;;;2.78;1.48;;;;;;;5.75;74.25;94128.31;5103073;28;20028;-76
2023/03/02 02:39:44;;;;;;;3.15;1.83;;;;;;;5.74;74.33;94116.16;5103198;28;20028;-76
2023/03/02 02:42:18;;;;;;;4.03;2.10;;;;;;;5.73;74.37;94125.16;5103220;28;20039;-76
2023/03/02 02:44:44;;;;;;;4.25;1.73;;;;;;;5.72;74.17;94134.16;5102954;28;20261;-76
2023/03/02 02:47:20;;;;;;;7.57;2.05;;;;;;;5.68;74.54;94122.56;5102784;28;20065;-76
2023/03/02 02:49:48;;;;;;;4.50;1.90;;;;;;;5.67;74.64;94120.97;5102940;28;20016;-76
2023/03/02 02:52:17;;;;;;;2.95;1.45;;;;;;;5.68;74.58;94116.44;5102915;28;20057;-75
2023/03/02 02:54:45;;;;;;;2.63;1.50;;;;;;;5.66;74.71;94118.56;5102951;28;20012;-76
2023/03/02 02:57:13;;;;;;;6.07;1.90;;;;;;;5.70;74.54;94119.59;5102906;28;20222;-76
2023/03/02 02:59:49;;;;;;;2.90;1.70;;;;;;;5.66;74.57;94118.56;5102998;28;20303;-76
2023/03/02 03:02:20;;;;;;;5.38;1.52;;;;;;;5.62;74.72;94123.66;5102718;28;20028;-76
2023/03/02 03:04:46;;;;;;;2.95;1.67;;;;;;;5.53;74.93;94123.41;5102704;28;20374;-76
2023/03/02 03:07:19;;;;;;;2.80;1.77;;;;;;;5.51;75.44;94116.84;5102870;28;20031;-76
2023/03/02 03:09:50;;;;;;;6.13;2.33;;;;;;;5.50;75.44;94112.63;5102754;28;20024;-76
2023/03/02 03:12:20;;;;;;;3.00;1.60;;;;;;;5.49;75.70;94109.16;5102713;28;20024;-75
2023/03/02 03:14:49;;;;;;;3.28;1.75;;;;;;;5.53;75.75;94114.72;5102525;28;20016;-76
2023/03/02 03:17:14;;;;;;;3.90;1.85;;;;;;;5.53;75.49;94112.06;5102702;28;20027;-76
2023/03/02 03:19:42;;;;;;;3.85;1.63;;;;;;;5.50;75.85;94117.91;5102865;28;20015;-77
2023/03/02 03:22:10;;;;;;;4.13;1.70;;;;;;;5.47;75.89;94106.00;5101476;28;20064;-77
2023/03/02 03:24:37;;;;;;;3.20;1.90;;;;;;;5.51;75.82;94111.56;5102562;28;20318;-77
2023/03/02 03:27:04;;;;;;;3.40;1.70;;;;;;;5.54;75.66;94113.66;5102498;28;20059;-77
2023/03/02 03:29:30;;;;;;;3.10;1.83;;;;;;;5.53;75.64;94112.06;5102504;28;20027;-77
2023/03/02 03:31:56;;;;;;;4.65;2.10;;;;;;;5.52;75.76;94118.44;5101482;28;20024;-77
2023/03/02 03:34:23;;;;;;;3.35;1.95;;;;;;;5.54;75.90;94118.94;5102560;28;20027;-77
2023/03/02 03:36:49;;;;;;;3.75;2.00;;;;;;;5.52;75.64;94115.78;5102702;28;20036;-77
2023/03/02 03:39:16;;;;;;;3.30;1.75;;;;;;;5.51;75.65;94114.97;5106067;28;20360;-77
2023/03/02 03:41:42;;;;;;;3.47;1.80;;;;;;;5.52;75.67;94111.28;5106499;28;20020;-77
2023/03/02 03:44:08;;;;;;;7.75;1.95;;;;;;;5.55;75.64;94112.56;5106109;28;20260;-77
2023/03/02 03:46:33;;;;;;;3.72;1.80;;;;;;;5.49;75.66;94119.75;5105895;28;20055;-77
2023/03/02 03:48:59;;;;;;;4.72;2.33;;;;;;;5.45;75.93;94112.66;5106134;28;20042;-76
2023/03/02 03:51:25;;;;;;;5.47;1.98;;;;;;;5.48;75.97;94112.91;5105865;28;20333;-77
2023/03/02 03:54:00;;;;;;;3.03;1.73;;;;;;;5.47;75.91;94106.00;5105899;28;20031;-77
2023/03/02 03:56:37;;;;;;;3.33;2.03;;;;;;;5.48;75.97;94110.25;5105909;28;20012;-77
2023/03/02 03:59:05;;;;;;;4.28;1.70;;;;;;;5.51;75.93;94116.84;5104690;28;20020;-77
2023/03/02 04:01:37;;;;;;;6.50;1.95;;;;;;;5.54;75.94;94118.94;5105817;28;20027;-77
2023/03/02 04:04:03;;;;;;;5.47;1.92;;;;;;;5.58;75.67;94112.03;5105493;28;20210;-77
2023/03/02 04:06:29;;;;;;;5.82;2.70;;;;;;;5.57;75.83;94115.75;5105519;28;20260;-76
2023/03/02 04:08:54;;;;;;;4.13;2.33;;;;;;;5.57;75.78;94115.75;5105705;28;20091;-76
2023/03/02 04:11:20;;;;;;;4.25;2.40;;;;;;;5.60;75.76;94120.50;5105543;28;20023;-76
2023/03/02 04:13:45;;;;;;;6.05;3.33;;;;;;;5.61;75.56;94114.91;5105640;28;20306;-75
2023/03/02 04:16:11;;;;;;;7.50;4.20;;;;;;;5.60;75.94;94125.78;5105512;28;20211;-76
2023/03/02 04:18:37;;;;;;;5.10;2.80;;;;;;;5.61;75.76;94114.91;5105484;28;20024;-76
2023/03/02 04:21:02;;;;;;;4.72;2.40;;;;;;;5.61;76.08;94117.53;5105296;28;20318;-76
2023/03/02 04:23:28;;;;;;;9.10;2.55;;;;;;;5.62;75.92;94115.72;5105380;28;20027;-76
2023/03/02 04:25:53;;;;;;;7.50;2.70;;;;;;;5.64;76.08;94116.22;5105185;28;20087;-76
2023/03/02 04:28:19;;;;;;;4.95;2.03;;;;;;;5.65;76.21;94115.16;5105366;28;20024;-76
2023/03/02 04:30:44;;;;;;;3.60;2.30;;;;;;;5.68;76.21;94106.69;5105101;28;20020;-76
2023/03/02 04:33:10;;;;;;;4.45;2.80;;;;;;;5.66;76.32;94108.81;5105325;28;20095;-77
2023/03/02 04:35:36;;;;;;;3.55;2.28;;;;;;;5.65;76.42;94122.31;5105166;28;20065;-77
2023/03/02 04:38:01;;;;;;;3.63;1.92;;;;;;;5.65;76.58;94117.78;5104932;28;20253;-77
2023/03/02 04:40:27;;;;;;;5.80;2.55;;;;;;;5.62;76.67;94123.66;5103850;28;20028;-75
2023/03/02 04:42:53;;;;;;;3.38;2.05;;;;;;;5.61;76.85;94120.19;5105009;28;20091;-75
2023/03/02 04:45:18;;;;;;;6.03;2.20;;;;;;;5.62;77.04;94119.16;5104964;28;20031;-76
2023/03/02 04:47:44;;;;;;;5.15;2.72;;;;;;;5.63;77.12;94120.72;5104768;28;20067;-76
2023/03/02 04:50:12;;;;;;;4.25;2.60;;;;;;;5.60;77.30;94128.41;5103588;28;20039;-76
2023/03/02 04:52:38;;;;;;;5.53;2.95;;;;;;;5.56;77.30;94127.41;5104619;28;20207;-76
2023/03/02 04:55:05;;;;;;;4.80;3.38;;;;;;;5.56;77.22;94130.03;5104627;28;20030;-76
2023/03/02 04:57:31;;;;;;;5.43;3.00;;;;;;;5.54;77.53;94126.88;5104797;28;20103;-76
2023/03/02 04:59:56;;;;;;;5.63;2.92;;;;;;;5.53;77.68;94133.22;5104583;28;20318;-76
2023/03/02 05:02:22;;;;;;;8.60;2.72;;;;;;;5.50;77.57;94129.28;5104493;28;20027;-76
2023/03/02 05:04:47;;;;;;;6.10;2.83;;;;;;;5.50;77.71;94123.97;5104447;28;20043;-75
2023/03/02 05:07:13;;;;;;;6.30;2.63;;;;;;;5.50;77.79;94131.13;5104728;28;20033;-75
2023/03/02 05:09:38;;;;;;;4.70;2.63;;;;;;;5.47;77.96;94127.16;5104614;28;20062;-75
2023/03/02 05:12:04;;;;;;;11.85;2.95;;;;;;;5.48;77.95;94133.25;5104245;28;20224;-75
2023/03/02 05:14:30;;;;;;;4.15;2.90;;;;;;;5.52;77.87;94126.38;5104277;28;20034;-76
2023/03/02 05:16:56;;;;;;;5.63;3.22;;;;;;;5.53;77.90;94133.22;5104079;28;20031;-75
2023/03/02 05:19:21;;;;;;;8.95;3.00;;;;;;;5.51;77.99;94133.47;5104063;28;20346;-75
2023/03/02 05:21:47;;;;;;;6.75;3.42;;;;;;;5.52;77.82;94129.00;5104346;28;20048;-75
2023/03/02 05:24:13;;;;;;;6.30;3.60;;;;;;;5.55;77.79;94134.50;5104290;28;20319;-75
2023/03/02 05:26:39;;;;;;;6.57;3.70;;;;;;;5.56;77.83;94135.31;5104104;28;20054;-75
2023/03/02 05:29:05;;;;;;;5.78;3.75;;;;;;;5.60;77.86;94146.94;5103962;28;20087;-75
2023/03/02 05:31:37;;;;;;;6.25;3.70;;;;;;;5.62;77.91;94145.59;5103918;28;20371;-75
2023/03/02 05:34:04;;;;;;;;;;;;;;;5.63;77.85;94131.28;5104311;28;20047;-76
2023/03/02 05:36:29;;;;;;;6.90;4.18;;;;;;;5.61;78.17;94145.84;5103895;28;20131;-76
2023/03/02 05:38:55;;;;;;;6.32;4.43;;;;;;;5.63;77.92;94146.38;5103667;28;20061;-76
2023/03/02 05:41:20;;;;;;;6.40;4.07;;;;;;;5.68;78.05;94150.81;5103720;28;20274;-76
2023/03/02 05:43:45;;;;;;;6.85;4.25;;;;;;;5.70;78.01;94149.50;5102559;28;20034;-76
2023/03/02 05:46:11;;;;;;;6.78;4.25;;;;;;;5.69;78.13;94150.56;5103690;28;20219;-75
2023/03/02 05:48:37;;;;;;;7.32;4.18;;;;;;;5.70;78.11;94146.88;5103946;28;20035;-75
2023/03/02 05:51:03;;;;;;;8.48;5.25;;;;;;;5.74;77.92;94147.91;5103628;28;20097;-75
2023/03/02 05:53:28;;;;;;;10.05;4.95;;;;;;;5.76;77.91;94145.75;5103609;28;20020;-75
2023/03/02 05:55:54;;;;;;;10.05;4.72;;;;;;;5.81;77.86;94143.06;5103656;28;20345;-76
2023/03/02 05:58:19;;;;;;;8.70;5.00;;;;;;;5.83;77.71;94146.22;5103405;28;20348;-76
2023/03/02 06:00:47;;;;;;;7.53;4.90;;;;;;;5.87;77.61;94145.69;5103092;28;20087;-76
2023/03/02 06:03:12;;;;;;;10.52;5.05;;;;;;;5.86;77.83;94149.38;5103561;28;20142;-76
2023/03/02 06:05:38;;;;;;;9.98;5.65;;;;;;;5.90;77.77;94151.19;5103231;28;20032;-76
2023/03/02 06:08:04;;;;;;;10.15;5.55;;;;;;;5.91;77.45;94152.78;5103376;28;20058;-76
2023/03/02 06:10:30;;;;;;;8.65;5.22;;;;;;;5.94;77.67;94152.25;5103387;28;20024;-76
2023/03/02 06:12:56;;;;;;;8.38;5.25;;;;;;;6.00;77.09;94155.66;5103272;28;20027;-76
2023/03/02 06:15:21;;;;;;;13.80;4.85;;;;;;;6.01;77.12;94157.25;5103296;28;20266;-76
2023/03/02 06:17:47;;;;;;;9.50;5.20;;;;;;;6.02;77.22;94158.81;5103170;28;20099;-76
2023/03/02 06:20:14;;;;;;;10.18;5.50;;;;;;;6.07;77.02;94155.38;5103480;28;20302;-76
2023/03/02 06:22:44;;;;;;;10.70;5.55;;;;;;;6.11;76.83;94169.63;5103372;28;20016;-76
2023/03/02 06:25:12;;;;;;;11.93;7.43;;;;;;;6.16;76.77;94165.06;5103170;28;20044;-76
2023/03/02 06:27:39;;;;;;;7.65;4.95;;;;;;;6.18;76.56;94162.91;5102989;28;20387;-76
2023/03/02 06:30:13;;;;;;;8.02;5.15;;;;;;;6.21;76.20;94164.25;5102976;28;20063;-76
2023/03/02 06:32:38;;;;;;;9.48;5.45;;;;;;;6.19;76.64;94169.03;5103334;28;20065;-76
2023/03/02 06:35:04;;;;;;;10.13;5.80;;;;;;;6.25;76.50;94175.03;5103032;28;20257;-76
2023/03/02 06:37:30;;;;;;;9.32;5.47;;;;;;;6.26;76.29;94168.69;5102844;28;20024;-77
2023/03/02 06:39:56;;;;;;;12.63;7.13;;;;;;;6.26;76.00;94166.06;5101687;28;20089;-77
2023/03/02 06:42:26;;;;;;;11.13;6.55;;;;;;;6.31;75.80;94160.69;5102938;28;20024;-77
2023/03/02 06:44:53;;;;;;;13.73;6.57;;;;;;;6.29;75.98;94168.94;5102989;28;20028;-77
2023/03/02 06:47:20;;;;;;;9.63;6.22;;;;;;;6.31;76.34;94166.00;5102921;28;20211;-77
2023/03/02 06:49:46;;;;;;;12.55;6.35;;;;;;;6.33;76.40;94164.66;5102838;28;20020;-77
2023/03/02 06:52:13;;;;;;;11.60;6.53;;;;;;;6.37;76.36;94167.53;5102915;28;20360;-77
2023/03/02 06:54:39;;;;;;;12.52;6.10;;;;;;;6.42;76.19;94167.50;5102945;28;20231;-77
2023/03/02 06:57:04;;;;;;;10.70;6.47;;;;;;;6.40;76.12;94167.75;5102843;28;20024;-77
2023/03/02 06:59:30;;;;;;;11.48;6.53;;;;;;;6.43;76.10;94174.34;5103021;28;20028;-76
2023/03/02 07:01:55;;;;;;;10.60;6.00;;;;;;;6.47;76.31;94162.13;5102886;28;20333;-77
2023/03/02 07:04:21;;;;;;;15.10;5.88;;;;;;;6.49;76.23;94151.28;5102786;28;20031;-75
2023/03/02 07:06:46;;;;;;;14.90;6.55;;;;;;;6.53;76.32;94158.38;5102654;28;20020;-77
2023/03/02 07:09:12;;;;;;;12.65;6.75;;;;;;;6.55;76.32;94158.09;5102889;28;20095;-77
2023/03/02 07:11:37;;;;;;;14.32;6.97;;;;;;;6.59;76.26;94162.56;5102720;28;20069;-77
2023/03/02 07:14:03;;;;;;;14.43;6.18;;;;;;;6.62;75.61;94164.66;5105504;28;20035;-77
2023/03/02 07:16:29;;;;;;;11.63;6.00;;;;;;;6.68;75.54;94161.97;5106418;28;20016;-77
2023/03/02 07:18:55;;;;;;;14.48;6.93;;;;;;;6.69;75.40;94160.88;5106562;28;20325;-76
2023/03/02 07:21:21;;;;;;;10.23;7.00;;;;;;;6.73;75.71;94157.38;5106273;28;20091;-74
2023/03/02 07:23:46;;;;;;;11.32;6.85;;;;;;;6.75;75.25;94163.19;5106339;28;20043;-74
2023/03/02 07:26:12;;;;;;;14.13;7.07;;;;;;;6.75;75.22;94165.06;5106429;28;20024;-74
2023/03/02 07:28:39;;;;;;;11.32;7.53;;;;;;;6.77;74.72;94154.97;5106185;28;20330;-74
2023/03/02 07:31:05;;;;;;;9.80;5.47;;;;;;;6.76;74.36;94164.00;5106226;28;20020;-77
2023/03/02 07:33:32;;;;;;;11.73;6.30;;;;;;;6.78;74.70;94175.09;5105961;28;20315;-77
2023/03/02 07:35:58;;;;;;;11.90;6.35;;;;;;;6.81;74.45;94171.88;5105641;28;20016;-76
2023/03/02 07:38:23;;;;;;;12.93;7.28;;;;;;;6.81;74.48;94177.97;5105794;28;20059;-77
2023/03/02 07:40:48;;;;;;;10.30;6.30;;;;;;;6.79;74.29;94176.66;5105796;28;20027;-78
2023/03/02 07:43:14;;;;;;;14.52;6.00;;;;;;;6.84;77.21;94171.34;5105712;28;20016;-76
2023/03/02 07:45:39;;;;;;;11.20;6.53;;;;;;;6.99;77.86;94170.38;5105957;28;20055;-76
2023/03/02 07:48:05;;;;;;;11.85;5.93;;;;;;;7.12;77.34;94174.19;5106073;28;20090;-76
2023/03/02 07:50:31;;;;;;;12.35;6.57;;;;;;;7.23;76.15;94167.69;5105920;28;20393;-74
2023/03/02 07:52:57;;;;;;;13.20;7.00;;;;;;;7.32;73.80;94167.84;5105862;28;20087;-74
2023/03/02 07:55:22;;;;;;;13.68;6.63;;;;;;;7.34;72.88;94166.50;5105689;28;20020;-75
2023/03/02 07:57:47;;;;;;;12.07;7.38;;;;;;;7.32;72.59;94175.81;5105952;28;20031;-75
2023/03/02 08:00:15;;;;;;;10.10;6.30;;;;;;;7.30;72.74;94170.78;5106092;28;20023;-75
2023/03/02 08:02:41;;;;;;;14.75;6.60;;;;;;;7.35;72.76;94172.59;5105843;28;20215;-76
2023/03/02 08:05:07;;;;;;;12.50;6.93;;;;;;;7.36;72.81;94172.28;5105595;28;20020;-76
2023/03/02 08:07:32;;;;;;;11.07;5.95;;;;;;;7.37;72.92;94165.16;5105612;28;20098;-76
2023/03/02 08:09:59;;;;;;;15.30;7.57;;;;;;;7.42;73.02;94173.81;5105566;28;20218;-76
2023/03/02 08:12:25;;;;;;;19.13;7.93;;;;;;;7.44;72.91;94169.00;5105726;28;20061;-76
2023/03/02 08:14:51;;;;;;;20.25;7.28;;;;;;;7.41;72.99;94160.84;5105449;28;20011;-76
2023/03/02 08:17:17;;;;;;;15.32;7.32;;;;;;;7.47;72.33;94165.03;5105507;28;20023;-76
2023/03/02 08:19:42;;;;;;;10.60;5.53;;;;;;;7.52;71.91;94156.19;5105395;28;20019;-76
2023/03/02 08:22:08;;;;;;;9.68;5.70;;;;;;;7.53;71.68;94163.06;5105325;28;20274;-76
2023/03/02 08:24:33;;;;;;;10.43;6.05;;;;;;;7.48;71.76;94155.97;5105116;28;20034;-76
2023/03/02 08:27:02;;;;;;;17.77;7.22;;;;;;;7.51;72.48;94157.25;5105210;28;20020;-76
2023/03/02 08:29:27;;;;;;;14.10;7.30;;;;;;;7.59;72.63;94162.72;5105223;28;20061;-76
2023/03/02 08:31:53;;;;;;;10.38;6.22;;;;;;;7.70;72.51;94158.06;5103861;28;20016;-78
2023/03/02 08:34:18;;;;;;;11.63;6.68;;;;;;;7.63;72.14;94153.13;5104992;28;20023;-75
2023/03/02 08:36:44;;;;;;;11.45;5.25;;;;;;;7.69;72.07;94156.47;5105159;28;20012;-76
2023/03/02 08:39:10;;;;;;;8.35;5.35;;;;;;;7.71;71.81;94159.63;5105038;28;20022;-76
2023/03/02 08:41:35;;;;;;;9.02;5.10;;;;;;;7.68;71.92;94160.22;5105103;28;20322;-76
2023/03/02 08:44:01;;;;;;;12.57;5.10;;;;;;;7.71;72.93;94159.63;5103768;28;20031;-76
2023/03/02 08:46:26;;;;;;;8.40;4.93;;;;;;;7.75;72.35;94157.19;5104645;28;20036;-76
2023/03/02 08:48:52;;;;;;;8.73;4.80;;;;;;;7.77;72.13;94157.69;5104865;28;20050;-77
2023/03/02 08:51:20;;;;;;;9.13;5.10;;;;;;;7.83;72.51;94152.03;5104787;28;20024;-77
2023/03/02 08:53:49;;;;;;;10.82;5.70;;;;;;;7.90;72.07;94158.84;5104705;28;20098;-77
2023/03/02 08:56:32;;;;;;;18.33;8.05;;;;;;;7.90;72.27;94151.69;5104458;28;20257;-76
2023/03/02 08:59:00;;;;;;;10.32;6.22;;;;;;;7.96;72.17;94155.81;5104603;28;20039;-76
2023/03/02 09:01:29;;;;;;;13.52;7.05;;;;;;;8.04;72.01;94141.91;5104590;28;20030;-76
2023/03/02 09:03:56;;;;;;;10.60;6.43;;;;;;;8.09;71.67;94145.56;5104377;28;20322;-77
2023/03/02 09:06:22;;;;;;;10.88;6.03;;;;;;;8.07;71.32;94145.84;5104357;28;20072;-76
2023/03/02 09:08:47;;;;;;;14.07;6.28;;;;;;;8.11;71.83;94149.50;5104396;28;20024;-76
2023/03/02 09:11:13;;;;;;;8.95;5.47;;;;;;;8.15;71.65;94136.44;5104600;28;20024;-76
2023/03/02 09:13:39;;;;;;;9.18;5.05;;;;;;;8.13;71.51;94144.69;5103312;28;20028;-76
2023/03/02 09:16:05;;;;;;;8.43;5.18;;;;;;;8.07;71.63;94145.06;5104109;28;20313;-76
2023/03/02 09:18:31;;;;;;;10.35;6.15;;;;;;;8.09;71.70;94143.69;5104321;28;20028;-76
2023/03/02 09:20:57;;;;;;;16.30;7.35;;;;;;;8.15;71.70;94139.88;5104162;28;20070;-76
2023/03/02 09:23:24;;;;;;;9.70;5.97;;;;;;;8.22;71.95;94142.94;5104221;28;20085;-76
2023/03/02 09:25:50;;;;;;;10.85;6.05;;;;;;;8.30;70.84;94127.41;5103957;28;20024;-76
2023/03/02 09:28:16;;;;;;;7.03;3.70;;;;;;;8.35;70.12;94127.34;5104094;28;20032;-76
2023/03/02 09:30:48;;;;;;;9.05;3.17;;;;;;;8.40;69.76;94130.66;5104325;28;20328;-76
2023/03/02 09:33:14;;;;;;;5.78;3.35;;;;;;;8.39;69.41;94130.97;5103972;28;20222;-77
2023/03/02 09:35:39;;;;;;;11.98;3.85;;;;;;;8.44;71.05;94133.56;5103489;28;20024;-84
2023/03/02 09:38:05;;;;;;;12.82;4.60;;;;;;;8.52;72.88;94130.25;5104080;28;20047;-82
2023/03/02 09:40:37;;;;;;;7.05;4.47;;;;;;;8.66;72.09;94114.31;5103829;28;20023;-76
2023/03/02 09:43:15;;;;;;;7.00;4.20;;;;;;;8.75;70.11;94120.53;5103927;28;20095;-81
2023/03/02 09:46:09;;;;;;;8.82;4.32;;;;;;;8.81;68.92;94114.03;5103717;28;20032;-75
2023/03/02 09:48:37;;;;;;;10.02;4.32;;;;;;;8.86;68.58;94118.47;5103712;28;20103;-75
2023/03/02 09:51:12;;;;;;;5.85;3.75;;;;;;;8.87;67.99;94119.25;5103678;28;20219;-77
2023/03/02 09:53:59;;;;;;;11.02;4.10;;;;;;;8.93;67.87;94118.06;5102595;28;20073;-78
2023/03/02 09:56:25;;;;;;;8.35;3.65;;;;;;;8.88;66.84;94126.94;5103475;28;20020;-75
2023/03/02 09:59:00;;;;;;;7.20;3.10;;;;;;;8.83;66.45;94119.84;5103690;28;20067;-76
2023/03/02 10:01:37;;;;;;;20.67;8.07;;;;;;;8.87;66.91;94120.03;5103600;28;20055;-78
2023/03/02 10:04:14;;;;;;;16.38;5.50;;;;;;;8.98;67.01;94117.97;5103499;28;20214;-78
2023/03/02 10:06:39;;;;;;;8.70;4.15;;;;;;;8.99;66.82;94114.22;5103599;28;20191;-76
2023/03/02 10:09:05;;;;;;;5.40;2.50;;;;;;;8.95;65.11;94115.91;5103531;28;20028;-75
2023/03/02 10:11:48;;;;;;;5.43;2.53;;;;;;;8.96;65.22;94123.59;5103385;28;20020;-76
2023/03/02 10:14:29;;;;;;;3.22;2.30;;;;;;;8.83;64.83;94127.00;5103558;28;20020;-78
2023/03/02 10:17:14;;;;;;;4.60;2.40;;;;;;;8.68;65.29;94130.75;5103348;28;20024;-77
2023/03/02 10:19:49;;;;;;;5.45;2.75;;;;;;;8.55;65.59;94134.97;5103631;28;20027;-80
2023/03/02 10:22:32;;;;;;;6.18;3.03;;;;;;;8.50;66.38;94143.03;5103193;28;20087;-77
2023/03/02 10:25:34;;;;;;;10.57;4.38;;;;;;;8.40;67.69;94138.63;5102822;28;20024;-76
2023/03/02 10:28:20;;;;;;;;;;;;;;;8.43;67.99;94129.34;5103681;28;20032;-75
2023/03/02 10:30:53;;;;;;;8.85;4.50;;;;;;;8.34;67.59;94136.38;5102790;28;19904;-76
2023/03/02 10:33:21;;;;;;;6.32;4.20;;;;;;;8.34;67.87;94137.16;5103214;28;20209;-75
2023/03/02 10:35:51;;;;;;;7.88;4.15;;;;;;;8.23;67.71;94133.88;5103056;28;20092;-74
2023/03/02 10:38:20;;;;;;;8.90;4.47;;;;;;;8.24;67.87;94132.81;5102910;28;20349;-76
2023/03/02 10:41:05;;;;;;;6.25;3.92;;;;;;;8.26;68.00;94131.72;5103069;28;20035;-76
2023/03/02 10:43:41;;;;;;;9.30;5.95;;;;;;;8.20;68.00;94123.06;5103107;28;20024;-76
2023/03/02 10:46:09;;;;;;;9.18;4.15;;;;;;;8.19;68.42;94122.28;5102766;28;20039;-75
2023/03/02 10:48:57;;;;;;;10.48;4.40;;;;;;;8.19;68.81;94124.94;5106088;28;20356;-74
2023/03/02 10:51:30;;;;;;;13.65;5.25;;;;;;;8.21;68.38;94119.34;5106960;28;20020;-75
2023/03/02 10:54:09;;;;;;;9.52;4.60;;;;;;;8.22;67.95;94121.69;5107256;28;20027;-75
2023/03/02 10:56:34;;;;;;;6.05;3.83;;;;;;;8.19;67.73;94122.28;5107111;28;20046;-74
2023/03/02 10:59:03;;;;;;;7.25;4.63;;;;;;;8.22;67.99;94123.56;5106784;28;20031;-75
2023/03/02 11:01:30;;;;;;;6.50;4.53;;;;;;;8.22;67.79;94119.03;5106909;28;20023;-76
2023/03/02 11:04:00;;;;;;;7.22;4.57;;;;;;;8.26;67.58;94116.56;5106992;28;20094;-75
2023/03/02 11:06:27;;;;;;;8.38;4.45;;;;;;;8.22;67.79;94113.75;5106895;28;20031;-74
2023/03/02 11:09:04;;;;;;;8.35;3.92;;;;;;;8.29;67.59;94104.59;5106792;28;20046;-75
2023/03/02 11:11:29;;;;;;;9.43;4.65;;;;;;;8.30;67.40;94106.94;5105076;28;20372;-75
2023/03/02 11:13:55;;;;;;;11.45;4.55;;;;;;;8.33;67.30;94105.59;5104916;28;20020;-75
2023/03/02 11:16:21;;;;;;;10.05;4.35;;;;;;;8.32;67.17;94096.81;5105017;28;20318;-75
2023/03/02 11:19:04;;;;;;;9.75;4.57;;;;;;;8.33;67.46;94094.97;5105040;28;20024;-74
2023/03/02 11:21:35;;;;;;;6.88;4.05;;;;;;;8.33;66.99;94090.44;5105528;28;20023;-74
2023/03/02 11:24:09;;;;;;;9.90;3.80;;;;;;;8.31;67.24;94086.50;5105615;28;20024;-74
2023/03/02 11:26:53;;;;;;;11.05;4.28;;;;;;;8.35;66.84;94087.50;5106227;28;20050;-74
2023/03/02 11:29:44;;;;;;;8.60;4.65;;;;;;;8.29;66.90;94081.47;5106078;28;20020;-74
2023/03/02 11:32:20;;;;;;;11.18;4.22;;;;;;;8.26;66.80;94084.72;5104567;28;20083;-74
2023/03/02 11:35:09;;;;;;;9.27;5.13;;;;;;;8.30;66.46;94084.91;5104416;28;20077;-74
2023/03/02 11:37:49;;;;;;;11.23;5.03;;;;;;;8.29;66.34;94078.81;5082437;28;20063;-75
2023/03/02 11:40:14;;;;;;;8.38;4.50;;;;;;;8.17;66.59;94073.97;5104161;28;20035;-74
2023/03/02 11:42:43;;;;;;;9.80;5.00;;;;;;;8.33;67.38;94073.72;5104702;28;20039;-74
2023/03/02 11:45:29;;;;;;;10.32;4.25;;;;;;;8.50;66.82;94075.84;5104833;28;20054;-74